Terminal Aerodrome Forecast
Issued by NWS Midland/Odessa, TX

Home | Current Version | Previous Version | Text Only | Print | Product List | Glossary On
Versions: 1 2 3 4 5 6 7 8 9 10 11 12 13 14
000
FTUS44 KMAF 300600 AAA
TAFMAF
TAF AMD
KMAF 300622Z 3006/3106 18004KT P6SM SKC
     FM301200 19005KT P6SM SKC
     FM301400 20006KT 3SM BR OVC002
     FM301700 31008KT P6SM SKC
     FM310000 03011KT P6SM SKC=

USA.gov is the U.S. government's official web portal to all federal, state and local government web resources and services.